createdAt,value
2022-11-24T00:01:20.251Z,29.60
2022-11-24T00:03:54.066Z,29.60
2022-11-24T00:06:21.667Z,27.70
2022-11-24T00:08:49.361Z,26.80
2022-11-24T00:11:25.980Z,24.60
2022-11-24T00:13:54.455Z,27.10
2022-11-24T00:16:25.761Z,32.20
2022-11-24T00:18:55.613Z,29.60
2022-11-24T00:21:24.697Z,27.20
2022-11-24T00:23:53.135Z,29.30
2022-11-24T00:26:23.569Z,28.20
2022-11-24T00:28:53.641Z,28.80
2022-11-24T00:31:29.785Z,24.00
2022-11-24T00:34:03.962Z,28.70
2022-11-24T00:36:33.873Z,30.60
2022-11-24T00:39:04.418Z,28.40
2022-11-24T00:41:32.177Z,33.80
2022-11-24T00:44:00.676Z,29.70
2022-11-24T00:46:28.986Z,28.90
2022-11-24T00:48:57.347Z,31.10
2022-11-24T00:51:35.821Z,34.70
2022-11-24T00:54:03.684Z,37.30
2022-11-24T00:56:31.350Z,35.80
2022-11-24T00:58:59.288Z,32.80
2022-11-24T01:01:30.255Z,37.50
2022-11-24T01:04:01.301Z,36.60
2022-11-24T01:06:29.978Z,36.00
2022-11-24T01:08:58.174Z,34.50
2022-11-24T01:11:28.757Z,41.20
2022-11-24T01:13:58.796Z,35.00
2022-11-24T01:16:28.527Z,34.30
2022-11-24T01:18:56.994Z,32.10
2022-11-24T01:21:24.701Z,32.10
2022-11-24T01:23:52.301Z,35.60
2022-11-24T01:26:22.236Z,35.30
2022-11-24T01:28:57.971Z,35.80
2022-11-24T01:31:26.390Z,32.30
2022-11-24T01:33:54.356Z,32.80
2022-11-24T01:36:22.979Z,31.60
2022-11-24T01:38:51.366Z,31.70
2022-11-24T01:41:18.897Z,33.40
2022-11-24T01:43:47.839Z,32.00
2022-11-24T01:46:28.264Z,35.80
2022-11-24T01:49:12.002Z,38.20
2022-11-24T01:51:46.425Z,33.60
2022-11-24T01:54:25.163Z,29.80
2022-11-24T01:56:57.005Z,34.20
2022-11-24T01:59:25.968Z,32.80
2022-11-24T02:01:56.122Z,36.60
2022-11-24T02:04:29.775Z,32.90
2022-11-24T02:07:01.697Z,34.10
2022-11-24T02:09:49.500Z,33.10
2022-11-24T02:12:17.147Z,34.30
2022-11-24T02:14:45.684Z,35.30
2022-11-24T02:17:13.354Z,37.40
2022-11-24T02:19:40.838Z,34.40
2022-11-24T02:22:21.752Z,32.80
2022-11-24T02:25:02.891Z,37.40
2022-11-24T02:27:30.792Z,31.40
2022-11-24T02:29:59.123Z,32.30
2022-11-24T02:32:28.279Z,33.90
2022-11-24T02:35:05.531Z,33.70
2022-11-24T02:37:33.148Z,37.10
2022-11-24T02:40:00.768Z,36.20
2022-11-24T02:42:35.230Z,38.60
2022-11-24T02:45:03.550Z,34.70
2022-11-24T02:47:31.125Z,35.90
2022-11-24T02:49:58.981Z,42.00
2022-11-24T02:52:26.531Z,29.90
2022-11-24T02:54:54.152Z,42.40
2022-11-24T02:57:23.288Z,33.70
2022-11-24T02:59:50.853Z,37.00
2022-11-24T03:02:18.431Z,35.30
2022-11-24T03:04:46.078Z,36.70
2022-11-24T03:07:14.697Z,39.10
2022-11-24T03:09:42.633Z,41.90
2022-11-24T03:12:10.204Z,42.30
2022-11-24T03:14:37.729Z,44.20
2022-11-24T03:17:05.439Z,40.70
2022-11-24T03:19:33.173Z,37.40
2022-11-24T03:22:00.730Z,45.20
2022-11-24T03:24:28.337Z,40.60
2022-11-24T03:26:55.951Z,40.90
2022-11-24T03:29:23.573Z,47.00
2022-11-24T03:31:51.151Z,49.10
2022-11-24T03:34:18.724Z,48.00
2022-11-24T03:36:46.326Z,44.90
2022-11-24T03:39:13.877Z,46.70
2022-11-24T03:41:41.431Z,48.00
2022-11-24T03:44:09.258Z,46.70
2022-11-24T03:46:37.003Z,57.50
2022-11-24T03:49:04.683Z,43.90
2022-11-24T03:51:32.234Z,54.30
2022-11-24T03:53:59.804Z,48.20
2022-11-24T03:56:28.063Z,50.80
2022-11-24T03:58:56.233Z,49.20
2022-11-24T04:01:23.973Z,49.90
2022-11-24T04:03:51.665Z,51.00
2022-11-24T04:06:19.257Z,48.70
2022-11-24T04:08:46.820Z,49.20
2022-11-24T04:11:34.358Z,46.70
2022-11-24T04:14:01.897Z,48.30
2022-11-24T04:16:29.500Z,51.20
2022-11-24T04:18:57.437Z,56.40
2022-11-24T04:21:24.974Z,56.80
2022-11-24T04:23:52.628Z,46.10
2022-11-24T04:26:20.156Z,49.70
2022-11-24T04:28:47.724Z,41.00
2022-11-24T04:31:15.366Z,43.70
2022-11-24T04:33:43.134Z,39.70
2022-11-24T04:36:11.247Z,47.70
2022-11-24T04:39:23.588Z,43.20
2022-11-24T04:41:26.380Z,40.90
2022-11-24T04:43:53.932Z,39.60
2022-11-24T04:46:21.558Z,43.40
2022-11-24T04:48:49.411Z,34.50
2022-11-24T04:51:17.030Z,45.10
2022-11-24T04:53:44.643Z,42.00
2022-11-24T04:56:12.163Z,38.80
2022-11-24T04:58:39.758Z,37.30
2022-11-24T05:01:08.502Z,41.60
2022-11-24T05:03:36.926Z,42.40
2022-11-24T05:06:04.855Z,39.60
2022-11-24T05:08:32.455Z,34.10
2022-11-24T05:11:07.535Z,41.40
2022-11-24T05:13:35.056Z,30.00
2022-11-24T05:16:02.801Z,41.60
2022-11-24T05:18:30.483Z,37.60
2022-11-24T05:20:59.056Z,36.60
2022-11-24T05:23:27.115Z,32.90
2022-11-24T05:25:54.813Z,44.70
2022-11-24T05:28:22.389Z,35.80
2022-11-24T05:30:49.990Z,37.20
2022-11-24T05:33:18.904Z,37.30
2022-11-24T05:35:48.196Z,43.30
2022-11-24T05:38:17.298Z,39.90
2022-11-24T05:40:44.828Z,40.40
2022-11-24T05:43:16.644Z,44.40
2022-11-24T05:45:45.018Z,43.40
2022-11-24T05:48:15.088Z,39.40
2022-11-24T05:50:42.661Z,37.50
2022-11-24T05:53:12.875Z,41.50
2022-11-24T05:55:41.917Z,33.80
2022-11-24T05:58:10.317Z,30.90
2022-11-24T06:00:37.868Z,30.70
2022-11-24T06:03:05.610Z,38.30
2022-11-24T06:05:33.358Z,41.40
2022-11-24T06:08:00.978Z,40.30
2022-11-24T06:10:28.586Z,34.30
2022-11-24T06:12:56.190Z,37.30
2022-11-24T06:15:23.730Z,38.40
2022-11-24T06:17:55.753Z,35.20
2022-11-24T06:20:29.723Z,33.10
2022-11-24T06:23:01.472Z,38.50
2022-11-24T06:25:29.489Z,39.60
2022-11-24T06:27:57.042Z,39.00
2022-11-24T06:30:24.773Z,36.10
2022-11-24T06:32:55.684Z,41.80
2022-11-24T06:35:25.478Z,32.20
2022-11-24T06:37:53.225Z,40.00
2022-11-24T06:40:20.928Z,35.30
2022-11-24T06:42:52.679Z,36.80
2022-11-24T06:45:20.277Z,43.80
2022-11-24T06:47:47.842Z,41.00
2022-11-24T06:50:15.792Z,37.70
2022-11-24T06:52:44.086Z,38.50
2022-11-24T06:55:11.696Z,48.90
2022-11-24T06:57:39.366Z,41.00
2022-11-24T07:00:09.289Z,35.80
2022-11-24T07:02:45.661Z,39.00
2022-11-24T07:05:15.195Z,53.40
2022-11-24T07:07:46.172Z,55.50
2022-11-24T07:10:17.825Z,104.00
2022-11-24T07:12:45.709Z,54.10
2022-11-24T07:15:14.343Z,87.40
2022-11-24T07:17:41.945Z,70.70
2022-11-24T07:20:10.233Z,44.20
2022-11-24T07:22:37.875Z,40.40
2022-11-24T07:25:07.541Z,38.90
2022-11-24T07:27:36.060Z,35.30
2022-11-24T07:30:04.416Z,35.30
2022-11-24T07:32:32.858Z,59.20
2022-11-24T07:35:00.449Z,40.00
2022-11-24T07:37:31.211Z,76.00
2022-11-24T07:39:59.343Z,92.90
2022-11-24T07:42:27.639Z,55.10
2022-11-24T07:44:55.196Z,69.60
2022-11-24T07:47:22.722Z,41.60
2022-11-24T07:49:50.420Z,38.00
2022-11-24T07:52:18.327Z,40.60
2022-11-24T07:54:48.820Z,43.50
2022-11-24T07:57:16.615Z,42.50
2022-11-24T07:59:44.237Z,43.30
2022-11-24T08:02:13.485Z,46.50
2022-11-24T08:04:41.366Z,42.00
2022-11-24T08:07:09.139Z,34.30
2022-11-24T08:09:38.865Z,39.50
2022-11-24T08:12:06.746Z,36.80
2022-11-24T08:14:34.713Z,33.80
2022-11-24T08:17:02.604Z,37.20
2022-11-24T08:19:32.230Z,33.60
2022-11-24T08:22:00.574Z,33.30
2022-11-24T08:24:28.982Z,39.30
2022-11-24T08:26:58.615Z,37.40
2022-11-24T08:29:31.019Z,37.60
2022-11-24T08:32:02.717Z,33.80
2022-11-24T08:34:32.534Z,32.40
2022-11-24T08:37:10.236Z,34.20
2022-11-24T08:39:38.444Z,41.00
2022-11-24T08:42:08.295Z,39.90
2022-11-24T08:44:38.667Z,35.40
2022-11-24T08:47:06.345Z,39.50
2022-11-24T08:49:34.016Z,39.10
2022-11-24T08:52:01.616Z,38.80
2022-11-24T08:54:29.323Z,42.90
2022-11-24T08:56:57.246Z,39.50
2022-11-24T08:59:25.020Z,40.50
2022-11-24T09:01:52.879Z,53.60
2022-11-24T09:04:20.929Z,76.20
2022-11-24T09:06:51.239Z,62.70
2022-11-24T09:09:19.142Z,70.40
2022-11-24T09:11:46.763Z,85.80
2022-11-24T09:14:14.431Z,55.90
2022-11-24T09:16:44.490Z,45.00
2022-11-24T09:19:12.508Z,42.30
2022-11-24T09:21:40.278Z,44.40
2022-11-24T09:24:08.656Z,43.50
2022-11-24T09:26:40.626Z,43.20
2022-11-24T09:29:11.082Z,36.20
2022-11-24T09:31:39.580Z,36.30
2022-11-24T09:34:11.852Z,53.30
2022-11-24T09:36:39.900Z,87.60
2022-11-24T09:39:08.083Z,48.70
2022-11-24T09:42:02.617Z,44.20
2022-11-24T09:44:54.484Z,58.40
2022-11-24T09:47:41.480Z,38.60
2022-11-24T09:50:21.783Z,38.30
2022-11-24T09:53:01.446Z,39.20
2022-11-24T09:55:48.405Z,41.80
2022-11-24T09:58:50.946Z,47.60
2022-11-24T10:01:26.324Z,79.50
2022-11-24T10:03:55.198Z,57.20
2022-11-24T10:06:26.852Z,58.60
2022-11-24T10:09:19.278Z,54.30
2022-11-24T10:11:53.231Z,70.80
2022-11-24T10:14:39.904Z,127.80
2022-11-24T10:17:13.797Z,64.40
2022-11-24T10:20:19.521Z,53.30
2022-11-24T10:23:25.856Z,185.50
2022-11-24T10:26:02.128Z,108.70
2022-11-24T10:28:47.408Z,69.00
2022-11-24T10:31:26.306Z,41.00
2022-11-24T10:34:12.488Z,35.50
2022-11-24T10:37:00.771Z,40.00
2022-11-24T10:40:10.857Z,37.60
2022-11-24T10:42:48.791Z,76.10
2022-11-24T10:45:19.557Z,41.80
2022-11-24T10:47:47.201Z,38.00
2022-11-24T10:50:25.039Z,37.40
2022-11-24T10:53:08.804Z,44.00
2022-11-24T10:55:58.621Z,40.10
2022-11-24T10:58:38.867Z,56.80
2022-11-24T11:01:12.825Z,45.00
2022-11-24T11:03:52.561Z,57.60
2022-11-24T11:06:29.321Z,69.30
2022-11-24T11:09:13.036Z,59.00
2022-11-24T11:11:41.791Z,62.50
2022-11-24T11:14:12.875Z,48.70
2022-11-24T11:16:42.243Z,33.30
2022-11-24T11:19:50.219Z,33.30
2022-11-24T11:22:35.775Z,40.60
2022-11-24T11:25:06.023Z,67.10
2022-11-24T11:27:34.867Z,32.60
2022-11-24T11:36:13.785Z,52.30
2022-11-24T11:38:43.292Z,50.70
2022-11-24T11:41:20.667Z,102.80
2022-11-24T11:43:57.142Z,109.00
2022-11-24T11:46:28.954Z,72.00
2022-11-24T11:48:56.740Z,46.10
2022-11-24T11:52:00.449Z,58.30
2022-11-24T11:54:38.471Z,58.10
2022-11-24T11:57:28.764Z,53.60
2022-11-24T12:00:20.341Z,61.00
2022-11-24T12:03:20.173Z,34.40
2022-11-24T12:05:58.591Z,34.80
2022-11-24T12:09:18.174Z,37.40
2022-11-24T12:12:08.047Z,35.10
2022-11-24T12:14:52.487Z,35.50
2022-11-24T12:17:35.922Z,51.80
2022-11-24T12:20:18.993Z,40.70
2022-11-24T12:23:02.391Z,63.00
2022-11-24T12:25:51.467Z,75.30
2022-11-24T12:28:51.018Z,54.30
2022-11-24T12:31:31.113Z,51.50
2022-11-24T12:34:30.821Z,42.70
2022-11-24T12:37:21.887Z,61.00
2022-11-24T12:40:03.845Z,55.00
2022-11-24T12:42:57.523Z,41.80
2022-11-24T12:45:36.443Z,76.00
2022-11-24T12:48:23.930Z,51.40
2022-11-24T12:50:55.325Z,38.00
2022-11-24T12:53:30.734Z,96.50
2022-11-24T12:56:06.454Z,46.80
2022-11-24T12:58:50.192Z,53.70
2022-11-24T13:01:34.472Z,50.40
2022-11-24T13:04:10.068Z,49.60
2022-11-24T13:06:50.974Z,55.20
2022-11-24T13:09:18.934Z,49.80
2022-11-24T13:11:48.970Z,42.10
2022-11-24T13:14:37.710Z,63.10
2022-11-24T13:17:38.404Z,85.60
2022-11-24T13:20:31.411Z,74.70
2022-11-24T13:23:02.692Z,59.80
2022-11-24T13:25:33.118Z,107.70
2022-11-24T13:28:02.834Z,119.40
2022-11-24T13:30:33.369Z,74.80
2022-11-24T13:33:19.553Z,68.40
2022-11-24T13:36:07.794Z,71.60
2022-11-24T13:38:52.791Z,73.80
2022-11-24T13:41:36.231Z,48.50
2022-11-24T13:44:24.280Z,53.50
2022-11-24T13:47:27.669Z,51.60
2022-11-24T13:49:55.209Z,49.90
2022-11-24T13:52:38.745Z,97.60
2022-11-24T13:55:12.535Z,45.80
2022-11-24T13:57:46.283Z,42.90
2022-11-24T14:00:58.370Z,42.30
2022-11-24T14:03:34.642Z,62.20
2022-11-24T14:06:03.621Z,45.30
2022-11-24T14:08:36.471Z,54.90
2022-11-24T14:11:14.187Z,39.20
2022-11-24T14:13:41.863Z,49.20
2022-11-24T14:16:09.406Z,63.70
2022-11-24T14:18:39.457Z,44.30
2022-11-24T14:21:23.739Z,50.70
2022-11-24T14:24:00.269Z,54.40
2022-11-24T14:26:30.750Z,47.10
2022-11-24T14:29:07.449Z,61.10
2022-11-24T14:31:35.064Z,62.20
2022-11-24T14:34:18.126Z,90.40
2022-11-24T14:36:45.659Z,63.80
2022-11-24T14:39:16.010Z,77.60
2022-11-24T14:42:03.588Z,65.40
2022-11-24T14:44:48.230Z,42.50
2022-11-24T14:47:33.804Z,48.60
2022-11-24T14:50:21.498Z,49.20
2022-11-24T14:52:56.460Z,53.50
2022-11-24T14:55:31.935Z,55.80
2022-11-24T14:57:59.977Z,56.40
2022-11-24T15:00:31.425Z,69.80
2022-11-24T15:03:02.074Z,49.60
2022-11-24T15:05:50.261Z,43.20
2022-11-24T15:08:18.365Z,51.00
2022-11-24T15:10:46.654Z,62.90
2022-11-24T15:13:18.211Z,77.80
2022-11-24T15:16:00.519Z,68.80
2022-11-24T15:18:47.867Z,62.90
2022-11-24T15:21:19.532Z,54.10
2022-11-24T15:24:15.412Z,62.60
2022-11-24T15:26:44.115Z,51.40
2022-11-24T15:29:12.597Z,70.70
2022-11-24T15:31:41.656Z,73.50
2022-11-24T15:34:13.952Z,70.90
2022-11-24T15:36:41.471Z,63.50
2022-11-24T15:39:09.066Z,66.90
2022-11-24T15:41:36.642Z,54.40
2022-11-24T15:44:04.403Z,62.60
2022-11-24T15:46:38.571Z,55.60
2022-11-24T15:49:07.171Z,72.30
2022-11-24T15:51:36.193Z,66.80
2022-11-24T15:54:03.869Z,64.50
2022-11-24T15:56:36.817Z,43.90
2022-11-24T15:59:04.564Z,44.50
2022-11-24T16:01:34.470Z,89.80
2022-11-24T16:04:03.106Z,128.90
2022-11-24T16:06:30.835Z,104.10
2022-11-24T16:08:59.054Z,60.00
2022-11-24T16:11:26.850Z,53.20
2022-11-24T16:13:54.752Z,55.30
2022-11-24T16:16:24.972Z,59.00
2022-11-24T16:18:53.064Z,58.70
2022-11-24T16:21:20.584Z,67.90
2022-11-24T16:23:48.720Z,71.80
2022-11-24T16:26:16.437Z,56.40
2022-11-24T16:28:45.630Z,68.90
2022-11-24T16:31:16.126Z,90.30
2022-11-24T16:33:47.434Z,69.40
2022-11-24T16:36:15.082Z,59.30
2022-11-24T16:38:42.639Z,56.90
2022-11-24T16:41:10.735Z,60.20
2022-11-24T16:43:38.778Z,69.10
2022-11-24T16:46:26.346Z,77.40
2022-11-24T16:48:57.308Z,57.60
2022-11-24T16:51:28.710Z,64.00
2022-11-24T16:54:01.352Z,55.50
2022-11-24T16:56:30.555Z,71.20
2022-11-24T16:58:58.103Z,66.90
2022-11-24T17:01:26.280Z,54.50
2022-11-24T17:03:53.893Z,73.10
2022-11-24T17:06:22.117Z,92.00
2022-11-24T17:08:49.780Z,76.50
2022-11-24T17:11:20.102Z,67.20
2022-11-24T17:13:49.308Z,69.10
2022-11-24T17:16:19.845Z,60.60
2022-11-24T17:18:47.998Z,58.20
2022-11-24T17:21:18.076Z,89.10
2022-11-24T17:23:46.337Z,109.70
2022-11-24T17:26:16.208Z,273.90
2022-11-24T17:28:45.112Z,347.70
2022-11-24T17:31:15.851Z,129.20
2022-11-24T17:33:43.446Z,53.70
2022-11-24T17:36:10.972Z,68.30
2022-11-24T17:38:38.907Z,55.80
2022-11-24T17:41:06.394Z,62.60
2022-11-24T17:43:34.449Z,56.90
2022-11-24T17:46:04.530Z,62.40
2022-11-24T17:48:32.794Z,63.90
2022-11-24T17:51:09.466Z,67.80
2022-11-24T17:53:37.455Z,75.20
2022-11-24T17:56:07.237Z,83.70
2022-11-24T17:58:41.273Z,74.40
2022-11-24T18:01:12.686Z,85.70
2022-11-24T18:03:41.446Z,70.30
2022-11-24T18:06:11.790Z,84.70
2022-11-24T18:08:44.905Z,104.70
2022-11-24T18:11:14.053Z,54.10
2022-11-24T18:13:58.529Z,72.00
2022-11-24T18:16:30.397Z,116.70
2022-11-24T18:19:10.166Z,155.30
2022-11-24T18:21:42.278Z,139.20
2022-11-24T18:24:11.364Z,91.70
2022-11-24T18:26:40.718Z,125.20
2022-11-24T18:29:09.830Z,94.40
2022-11-24T18:31:38.155Z,156.20
2022-11-24T18:34:06.181Z,124.10
2022-11-24T18:36:34.863Z,206.70
2022-11-24T18:39:04.926Z,106.20
2022-11-24T18:41:32.834Z,97.90
2022-11-24T18:44:08.610Z,89.60
2022-11-24T18:46:37.692Z,79.60
2022-11-24T18:49:06.899Z,66.90
2022-11-24T18:51:34.748Z,74.90
2022-11-24T18:54:04.029Z,77.80
2022-11-24T18:56:31.540Z,85.50
2022-11-24T18:58:59.028Z,94.20
2022-11-24T19:01:28.675Z,102.20
2022-11-24T19:03:58.860Z,90.10
2022-11-24T19:06:35.674Z,63.70
2022-11-24T19:09:25.319Z,63.50
2022-11-24T19:11:52.953Z,65.40
2022-11-24T19:14:20.396Z,57.20
2022-11-24T19:16:48.328Z,65.70
2022-11-24T19:19:17.093Z,58.70
2022-11-24T19:21:44.879Z,59.50
2022-11-24T19:24:13.363Z,60.60
2022-11-24T19:26:41.241Z,56.70
2022-11-24T19:29:08.790Z,57.70
2022-11-24T19:31:39.255Z,54.20
2022-11-24T19:34:07.882Z,47.50
2022-11-24T19:36:36.049Z,55.00
2022-11-24T19:39:05.167Z,56.90
2022-11-24T19:41:35.224Z,70.50
2022-11-24T19:44:02.836Z,68.40
2022-11-24T19:46:30.586Z,138.20
2022-11-24T19:49:00.771Z,396.40
2022-11-24T19:51:33.812Z,131.60
2022-11-24T19:54:02.175Z,97.10
2022-11-24T19:56:33.934Z,86.70
2022-11-24T19:59:04.019Z,76.80
2022-11-24T20:01:34.589Z,78.90
2022-11-24T20:04:07.768Z,70.40
2022-11-24T20:06:38.077Z,61.70
2022-11-24T20:09:08.918Z,80.40
2022-11-24T20:11:37.068Z,68.10
2022-11-24T20:14:06.264Z,74.20
2022-11-24T20:16:35.053Z,86.30
2022-11-24T20:19:06.364Z,81.30
2022-11-24T20:21:36.332Z,75.00
2022-11-24T20:24:12.391Z,68.20
2022-11-24T20:26:52.357Z,63.10
2022-11-24T20:29:20.301Z,61.80
2022-11-24T20:31:51.422Z,55.00
2022-11-24T20:34:20.463Z,57.10
2022-11-24T20:36:48.631Z,68.00
2022-11-24T20:39:19.640Z,72.60
2022-11-24T20:41:47.591Z,76.10
2022-11-24T20:44:17.440Z,66.30
2022-11-24T20:46:46.626Z,68.70
2022-11-24T20:49:16.707Z,53.60
2022-11-24T20:51:47.249Z,62.40
2022-11-24T20:54:17.428Z,67.60
2022-11-24T20:56:46.579Z,63.90
2022-11-24T20:59:17.648Z,63.70
2022-11-24T21:01:47.111Z,73.90
2022-11-24T21:04:21.347Z,67.20
2022-11-24T21:06:49.406Z,72.90
2022-11-24T21:09:17.346Z,68.70
2022-11-24T21:11:45.593Z,73.40
2022-11-24T21:14:13.567Z,64.70
2022-11-24T21:16:42.685Z,67.80
2022-11-24T21:19:12.713Z,65.60
2022-11-24T21:21:42.469Z,59.00
2022-11-24T21:24:14.211Z,83.50
2022-11-24T21:26:47.243Z,81.50
2022-11-24T21:29:18.809Z,68.50
2022-11-24T21:31:46.717Z,68.00
2022-11-24T21:34:16.569Z,61.80
2022-11-24T21:36:45.139Z,58.70
2022-11-24T21:39:14.647Z,61.50
2022-11-24T21:41:43.245Z,58.00
2022-11-24T21:44:12.774Z,60.70
2022-11-24T21:46:46.267Z,58.90
2022-11-24T21:49:16.986Z,64.70
2022-11-24T21:51:44.664Z,52.10
2022-11-24T21:54:12.200Z,62.10
2022-11-24T21:56:39.729Z,66.10
2022-11-24T21:59:07.338Z,57.70
2022-11-24T22:01:34.857Z,71.50
2022-11-24T22:04:02.513Z,68.30
2022-11-24T22:06:32.035Z,83.70
2022-11-24T22:08:59.555Z,68.20
2022-11-24T22:11:27.088Z,87.50
2022-11-24T22:13:54.625Z,100.10
2022-11-24T22:16:24.306Z,106.20
2022-11-24T22:18:52.248Z,74.30
2022-11-24T22:21:23.764Z,73.20
2022-11-24T22:23:54.776Z,57.60
2022-11-24T22:26:23.802Z,56.90
2022-11-24T22:28:53.186Z,68.30
2022-11-24T22:31:26.880Z,78.10
2022-11-24T22:33:55.928Z,79.10
2022-11-24T22:36:26.089Z,79.30
2022-11-24T22:38:58.241Z,67.70
2022-11-24T22:41:26.051Z,79.60
2022-11-24T22:43:53.848Z,72.60
2022-11-24T22:46:23.682Z,66.10
2022-11-24T22:48:53.789Z,61.60
2022-11-24T22:51:38.457Z,66.50
2022-11-24T22:54:06.235Z,54.50
2022-11-24T22:56:34.088Z,70.10
2022-11-24T22:59:02.845Z,62.00
2022-11-24T23:01:33.422Z,64.90
2022-11-24T23:04:01.154Z,71.20
2022-11-24T23:06:30.587Z,79.80
2022-11-24T23:09:00.199Z,72.00
2022-11-24T23:11:36.399Z,78.50
2022-11-24T23:14:13.861Z,67.60
2022-11-24T23:16:42.122Z,82.40
2022-11-24T23:19:10.234Z,73.10
2022-11-24T23:21:38.911Z,68.20
2022-11-24T23:24:07.752Z,72.20
2022-11-24T23:26:38.093Z,67.40
2022-11-24T23:29:06.768Z,61.70
2022-11-24T23:31:35.619Z,60.00
2022-11-24T23:34:04.145Z,65.00
2022-11-24T23:36:32.923Z,64.70
2022-11-24T23:39:06.438Z,83.30
2022-11-24T23:41:34.668Z,66.40
2022-11-24T23:44:02.204Z,65.20
2022-11-24T23:46:30.329Z,74.50
2022-11-24T23:48:58.356Z,70.90
2022-11-24T23:51:31.200Z,61.70
2022-11-24T23:53:59.999Z,63.30
2022-11-24T23:56:33.232Z,61.10
2022-11-24T23:59:02.597Z,64.90
